sensor_id;sensor_type;location;lat;lon;timestamp;pressure;altitude;pressure_sealevel;temperature;humidity
77587;BME280;66744;49.716;17.158;2023-03-01T00:01:05;100306.84;;;-2.52;77.57
77587;BME280;66744;49.716;17.158;2023-03-01T00:04:07;100320.63;;;-2.53;77.57
77587;BME280;66744;49.716;17.158;2023-03-01T00:07:08;100316.19;;;-2.58;77.50
77587;BME280;66744;49.716;17.158;2023-03-01T00:10:10;100312.25;;;-2.60;77.87
77587;BME280;66744;49.716;17.158;2023-03-01T00:13:11;100313.19;;;-2.65;78.48
77587;BME280;66744;49.716;17.158;2023-03-01T00:16:16;100314.00;;;-2.64;76.64
77587;BME280;66744;49.716;17.158;2023-03-01T00:19:19;100316.69;;;-2.64;77.16
77587;BME280;66744;49.716;17.158;2023-03-01T00:22:20;100310.50;;;-2.65;75.89
77587;BME280;66744;49.716;17.158;2023-03-01T00:25:22;100308.28;;;-2.71;77.21
77587;BME280;66744;49.716;17.158;2023-03-01T00:28:23;100313.97;;;-2.73;77.36
77587;BME280;66744;49.716;17.158;2023-03-01T00:31:26;100304.81;;;-2.72;77.59
77587;BME280;66744;49.716;17.158;2023-03-01T00:34:28;100302.28;;;-2.77;79.28
77587;BME280;66744;49.716;17.158;2023-03-01T00:37:29;100308.75;;;-2.78;77.95
77587;BME280;66744;49.716;17.158;2023-03-01T00:40:33;100297.69;;;-2.76;77.46
77587;BME280;66744;49.716;17.158;2023-03-01T00:43:35;100301.78;;;-2.79;78.26
77587;BME280;66744;49.716;17.158;2023-03-01T00:46:39;100302.91;;;-2.80;76.98
77587;BME280;66744;49.716;17.158;2023-03-01T00:49:41;100300.03;;;-2.84;77.85
77587;BME280;66744;49.716;17.158;2023-03-01T00:52:42;100293.41;;;-2.86;77.42
77587;BME280;66744;49.716;17.158;2023-03-01T00:55:43;100292.94;;;-2.88;79.13
77587;BME280;66744;49.716;17.158;2023-03-01T00:58:44;100289.28;;;-2.92;79.60
77587;BME280;66744;49.716;17.158;2023-03-01T01:01:45;100286.44;;;-2.96;78.99
77587;BME280;66744;49.716;17.158;2023-03-01T01:04:47;100288.31;;;-2.96;79.68
77587;BME280;66744;49.716;17.158;2023-03-01T01:07:48;100285.78;;;-3.01;79.05
77587;BME280;66744;49.716;17.158;2023-03-01T01:10:49;100284.38;;;-2.99;78.70
77587;BME280;66744;49.716;17.158;2023-03-01T01:13:52;100276.47;;;-3.04;79.15
77587;BME280;66744;49.716;17.158;2023-03-01T01:16:53;100281.66;;;-3.07;78.55
77587;BME280;66744;49.716;17.158;2023-03-01T01:19:55;100279.44;;;-3.14;78.73
77587;BME280;66744;49.716;17.158;2023-03-01T01:22:56;100285.59;;;-3.13;79.92
77587;BME280;66744;49.716;17.158;2023-03-01T01:26:06;100277.53;;;-3.13;79.28
77587;BME280;66744;49.716;17.158;2023-03-01T01:29:08;100275.94;;;-3.14;79.46
77587;BME280;66744;49.716;17.158;2023-03-01T01:32:10;100279.94;;;-3.12;78.46
77587;BME280;66744;49.716;17.158;2023-03-01T01:35:11;100273.25;;;-3.14;77.67
77587;BME280;66744;49.716;17.158;2023-03-01T01:38:12;100265.53;;;-3.16;77.90
77587;BME280;66744;49.716;17.158;2023-03-01T01:41:14;100270.44;;;-3.18;77.75
77587;BME280;66744;49.716;17.158;2023-03-01T01:44:24;100266.31;;;-3.24;79.14
77587;BME280;66744;49.716;17.158;2023-03-01T01:47:32;100265.03;;;-3.26;79.96
77587;BME280;66744;49.716;17.158;2023-03-01T01:50:35;100271.03;;;-3.29;79.60
77587;BME280;66744;49.716;17.158;2023-03-01T01:53:42;100267.56;;;-3.30;79.28
77587;BME280;66744;49.716;17.158;2023-03-01T01:56:51;100263.28;;;-3.31;79.66
77587;BME280;66744;49.716;17.158;2023-03-01T01:59:58;100264.72;;;-3.33;80.00
77587;BME280;66744;49.716;17.158;2023-03-01T02:03:08;100255.38;;;-3.36;78.46
77587;BME280;66744;49.716;17.158;2023-03-01T02:06:30;100261.22;;;-3.34;78.69
77587;BME280;66744;49.716;17.158;2023-03-01T02:09:33;100257.75;;;-3.34;78.58
77587;BME280;66744;49.716;17.158;2023-03-01T02:12:36;100259.63;;;-3.35;78.73
77587;BME280;66744;49.716;17.158;2023-03-01T02:15:40;100247.78;;;-3.34;78.46
77587;BME280;66744;49.716;17.158;2023-03-01T02:18:43;100243.22;;;-3.33;78.62
77587;BME280;66744;49.716;17.158;2023-03-01T02:22:24;100236.41;;;-3.31;78.67
77587;BME280;66744;49.716;17.158;2023-03-01T02:25:38;100239.41;;;-3.32;78.68
77587;BME280;66744;49.716;17.158;2023-03-01T02:28:43;100231.69;;;-3.34;77.78
77587;BME280;66744;49.716;17.158;2023-03-01T02:31:45;100242.41;;;-3.34;78.23
77587;BME280;66744;49.716;17.158;2023-03-01T02:34:47;100244.78;;;-3.32;78.03
77587;BME280;66744;49.716;17.158;2023-03-01T02:37:49;100236.25;;;-3.34;78.06
77587;BME280;66744;49.716;17.158;2023-03-01T02:40:51;100242.72;;;-3.36;78.24
77587;BME280;66744;49.716;17.158;2023-03-01T02:43:53;100239.09;;;-3.40;77.81
77587;BME280;66744;49.716;17.158;2023-03-01T02:46:56;100243.19;;;-3.42;78.17
77587;BME280;66744;49.716;17.158;2023-03-01T02:49:57;100241.13;;;-3.45;78.83
77587;BME280;66744;49.716;17.158;2023-03-01T02:53:11;100245.72;;;-3.46;79.09
77587;BME280;66744;49.716;17.158;2023-03-01T02:56:14;100246.00;;;-3.47;78.88
77587;BME280;66744;49.716;17.158;2023-03-01T02:59:18;100241.44;;;-3.47;79.14
77587;BME280;66744;49.716;17.158;2023-03-01T03:02:26;100234.97;;;-3.46;79.60
77587;BME280;66744;49.716;17.158;2023-03-01T03:05:40;100239.38;;;-3.50;78.43
77587;BME280;66744;49.716;17.158;2023-03-01T03:08:42;100236.03;;;-3.55;78.77
77587;BME280;66744;49.716;17.158;2023-03-01T03:11:44;100239.19;;;-3.53;80.06
77587;BME280;66744;49.716;17.158;2023-03-01T03:14:46;100237.31;;;-3.53;79.26
77587;BME280;66744;49.716;17.158;2023-03-01T03:17:48;100235.75;;;-3.54;79.23
77587;BME280;66744;49.716;17.158;2023-03-01T03:20:49;100228.78;;;-3.55;78.79
77587;BME280;66744;49.716;17.158;2023-03-01T03:23:54;100228.78;;;-3.55;79.25
77587;BME280;66744;49.716;17.158;2023-03-01T03:26:55;100229.25;;;-3.53;78.34
77587;BME280;66744;49.716;17.158;2023-03-01T03:29:56;100234.78;;;-3.58;78.41
77587;BME280;66744;49.716;17.158;2023-03-01T03:32:58;100230.03;;;-3.61;79.92
77587;BME280;66744;49.716;17.158;2023-03-01T03:35:59;100229.56;;;-3.63;81.14
77587;BME280;66744;49.716;17.158;2023-03-01T03:39:01;100221.19;;;-3.61;80.37
77587;BME280;66744;49.716;17.158;2023-03-01T03:42:03;100227.16;;;-3.64;81.00
77587;BME280;66744;49.716;17.158;2023-03-01T03:45:05;100222.75;;;-3.69;79.56
77587;BME280;66744;49.716;17.158;2023-03-01T03:48:08;100221.63;;;-3.68;80.73
77587;BME280;66744;49.716;17.158;2023-03-01T03:51:14;100218.63;;;-3.66;78.73
77587;BME280;66744;49.716;17.158;2023-03-01T03:54:16;100203.16;;;-3.69;79.87
77587;BME280;66744;49.716;17.158;2023-03-01T03:57:18;100208.19;;;-3.68;79.33
77587;BME280;66744;49.716;17.158;2023-03-01T04:00:20;100208.38;;;-3.64;79.62
77587;BME280;66744;49.716;17.158;2023-03-01T04:03:24;100210.25;;;-3.65;78.61
77587;BME280;66744;49.716;17.158;2023-03-01T04:06:25;100199.22;;;-3.63;79.52
77587;BME280;66744;49.716;17.158;2023-03-01T04:09:26;100201.59;;;-3.62;79.36
77587;BME280;66744;49.716;17.158;2023-03-01T04:12:28;100199.53;;;-3.65;78.99
77587;BME280;66744;49.716;17.158;2023-03-01T04:15:30;100204.41;;;-3.67;79.71
77587;BME280;66744;49.716;17.158;2023-03-01T04:18:32;100215.16;;;-3.67;78.21
77587;BME280;66744;49.716;17.158;2023-03-01T04:21:33;100216.44;;;-3.64;78.53
77587;BME280;66744;49.716;17.158;2023-03-01T04:24:35;100219.91;;;-3.64;79.66
77587;BME280;66744;49.716;17.158;2023-03-01T04:27:36;100211.69;;;-3.67;79.77
77587;BME280;66744;49.716;17.158;2023-03-01T04:30:38;100211.03;;;-3.73;78.99
77587;BME280;66744;49.716;17.158;2023-03-01T04:33:45;100206.47;;;-3.72;79.45
77587;BME280;66744;49.716;17.158;2023-03-01T04:36:46;100199.31;;;-3.77;79.25
77587;BME280;66744;49.716;17.158;2023-03-01T04:39:47;100195.38;;;-3.79;79.83
77587;BME280;66744;49.716;17.158;2023-03-01T04:42:49;100208.78;;;-3.79;79.58
77587;BME280;66744;49.716;17.158;2023-03-01T04:45:50;100212.28;;;-3.79;79.47
77587;BME280;66744;49.716;17.158;2023-03-01T04:48:51;100210.38;;;-3.78;79.91
77587;BME280;66744;49.716;17.158;2023-03-01T04:51:53;100215.44;;;-3.77;79.39
77587;BME280;66744;49.716;17.158;2023-03-01T04:54:54;100217.81;;;-3.75;79.31
77587;BME280;66744;49.716;17.158;2023-03-01T04:57:55;100219.09;;;-3.73;79.63
77587;BME280;66744;49.716;17.158;2023-03-01T05:00:56;100217.50;;;-3.74;79.28
77587;BME280;66744;49.716;17.158;2023-03-01T05:03:58;100211.66;;;-3.76;79.19
77587;BME280;66744;49.716;17.158;2023-03-01T05:07:03;100209.28;;;-3.77;79.43
77587;BME280;66744;49.716;17.158;2023-03-01T05:10:05;100203.13;;;-3.78;79.56
77587;BME280;66744;49.716;17.158;2023-03-01T05:13:06;100199.63;;;-3.87;80.36
77587;BME280;66744;49.716;17.158;2023-03-01T05:16:08;100194.69;;;-3.94;79.36
77587;BME280;66744;49.716;17.158;2023-03-01T05:19:11;100179.03;;;-4.00;80.06
77587;BME280;66744;49.716;17.158;2023-03-01T05:22:16;100195.94;;;-4.00;80.35
77587;BME280;66744;49.716;17.158;2023-03-01T05:25:17;100186.00;;;-3.99;80.18
77587;BME280;66744;49.716;17.158;2023-03-01T05:28:19;100188.97;;;-4.01;80.17
77587;BME280;66744;49.716;17.158;2023-03-01T05:31:21;100182.69;;;-3.96;80.55
77587;BME280;66744;49.716;17.158;2023-03-01T05:34:26;100189.34;;;-3.94;79.97
77587;BME280;66744;49.716;17.158;2023-03-01T05:37:28;100197.53;;;-3.99;79.81
77587;BME280;66744;49.716;17.158;2023-03-01T05:40:33;100203.34;;;-4.05;80.28
77587;BME280;66744;49.716;17.158;2023-03-01T05:43:34;100210.28;;;-4.04;79.95
77587;BME280;66744;49.716;17.158;2023-03-01T05:46:36;100204.13;;;-4.05;80.34
77587;BME280;66744;49.716;17.158;2023-03-01T05:49:37;100203.19;;;-4.00;79.82
77587;BME280;66744;49.716;17.158;2023-03-01T05:52:39;100203.22;;;-3.92;79.95
77587;BME280;66744;49.716;17.158;2023-03-01T05:55:40;100205.16;;;-3.83;79.73
77587;BME280;66744;49.716;17.158;2023-03-01T05:58:41;100206.44;;;-3.81;79.16
77587;BME280;66744;49.716;17.158;2023-03-01T06:01:42;100200.44;;;-3.78;79.83
77587;BME280;66744;49.716;17.158;2023-03-01T06:04:44;100205.03;;;-3.70;79.26
77587;BME280;66744;49.716;17.158;2023-03-01T06:07:46;100210.88;;;-3.68;79.68
77587;BME280;66744;49.716;17.158;2023-03-01T06:10:47;100217.69;;;-3.62;78.99
77587;BME280;66744;49.716;17.158;2023-03-01T06:13:48;100218.97;;;-3.59;78.14
77587;BME280;66744;49.716;17.158;2023-03-01T06:16:49;100222.63;;;-3.55;78.28
77587;BME280;66744;49.716;17.158;2023-03-01T06:19:50;100225.03;;;-3.45;78.67
77587;BME280;66744;49.716;17.158;2023-03-01T06:22:52;100225.69;;;-3.31;78.28
77587;BME280;66744;49.716;17.158;2023-03-01T06:25:53;100215.56;;;-3.25;78.37
77587;BME280;66744;49.716;17.158;2023-03-01T06:28:54;100220.03;;;-3.12;77.90
77587;BME280;66744;49.716;17.158;2023-03-01T06:31:56;100220.50;;;-3.02;77.48
77587;BME280;66744;49.716;17.158;2023-03-01T06:34:57;100226.81;;;-2.89;77.56
77587;BME280;66744;49.716;17.158;2023-03-01T06:38:01;100221.13;;;-2.79;77.00
77587;BME280;66744;49.716;17.158;2023-03-01T06:41:03;100212.41;;;-2.76;77.57
77587;BME280;66744;49.716;17.158;2023-03-01T06:44:04;100218.28;;;-2.65;76.98
77587;BME280;66744;49.716;17.158;2023-03-01T06:47:05;100211.78;;;-2.56;77.44
77587;BME280;66744;49.716;17.158;2023-03-01T06:50:07;100223.00;;;-2.45;77.61
77587;BME280;66744;49.716;17.158;2023-03-01T06:53:09;100214.44;;;-2.39;76.52
77587;BME280;66744;49.716;17.158;2023-03-01T06:56:10;100220.75;;;-2.26;77.12
77587;BME280;66744;49.716;17.158;2023-03-01T06:59:11;100224.34;;;-2.13;76.60
77587;BME280;66744;49.716;17.158;2023-03-01T07:02:14;100222.09;;;-2.03;75.57
77587;BME280;66744;49.716;17.158;2023-03-01T07:05:16;100226.97;;;-1.88;75.34
77587;BME280;66744;49.716;17.158;2023-03-01T07:08:18;100215.50;;;-1.76;75.82
77587;BME280;66744;49.716;17.158;2023-03-01T07:11:19;100220.19;;;-1.64;74.44
77587;BME280;66744;49.716;17.158;2023-03-01T07:14:21;100221.56;;;-1.50;74.56
77587;BME280;66744;49.716;17.158;2023-03-01T07:17:22;100227.03;;;-1.38;74.69
77587;BME280;66744;49.716;17.158;2023-03-01T07:20:24;100225.34;;;-1.22;74.22
77587;BME280;66744;49.716;17.158;2023-03-01T07:23:26;100228.09;;;-1.09;74.33
77587;BME280;66744;49.716;17.158;2023-03-01T07:26:28;100235.16;;;-0.96;73.95
77587;BME280;66744;49.716;17.158;2023-03-01T07:29:29;100226.69;;;-0.86;73.71
77587;BME280;66744;49.716;17.158;2023-03-01T07:32:32;100225.97;;;-0.75;73.16
77587;BME280;66744;49.716;17.158;2023-03-01T07:35:33;100216.47;;;-0.60;73.58
77587;BME280;66744;49.716;17.158;2023-03-01T07:38:34;100225.06;;;-0.46;72.87
77587;BME280;66744;49.716;17.158;2023-03-01T07:41:36;100215.53;;;-0.31;72.14
77587;BME280;66744;49.716;17.158;2023-03-01T07:44:37;100219.06;;;-0.19;72.31
77587;BME280;66744;49.716;17.158;2023-03-01T07:47:39;100207.94;;;-0.05;71.60
77587;BME280;66744;49.716;17.158;2023-03-01T07:50:40;100208.63;;;0.04;70.57
77587;BME280;66744;49.716;17.158;2023-03-01T07:53:41;100194.69;;;0.14;70.03
77587;BME280;66744;49.716;17.158;2023-03-01T07:56:42;100186.94;;;0.25;71.22
77587;BME280;66744;49.716;17.158;2023-03-01T07:59:44;100192.22;;;0.33;70.53
77587;BME280;66744;49.716;17.158;2023-03-01T08:02:45;100189.88;;;0.44;71.03
77587;BME280;66744;49.716;17.158;2023-03-01T08:05:49;100186.81;;;0.57;71.17
77587;BME280;66744;49.716;17.158;2023-03-01T08:08:54;100189.59;;;0.73;69.67
77587;BME280;66744;49.716;17.158;2023-03-01T08:11:59;100186.09;;;0.85;69.69
77587;BME280;66744;49.716;17.158;2023-03-01T08:15:00;100183.78;;;0.99;70.44
77587;BME280;66744;49.716;17.158;2023-03-01T08:18:01;100182.97;;;1.10;70.08
77587;BME280;66744;49.716;17.158;2023-03-01T08:21:09;100195.59;;;1.19;68.92
77587;BME280;66744;49.716;17.158;2023-03-01T08:24:10;100186.28;;;1.32;68.86
77587;BME280;66744;49.716;17.158;2023-03-01T08:27:11;100185.09;;;1.45;67.31
77587;BME280;66744;49.716;17.158;2023-03-01T08:30:13;100177.69;;;1.57;67.19
77587;BME280;66744;49.716;17.158;2023-03-01T08:33:14;100183.50;;;1.72;66.03
77587;BME280;66744;49.716;17.158;2023-03-01T08:36:15;100177.53;;;1.82;64.19
77587;BME280;66744;49.716;17.158;2023-03-01T08:39:27;100169.69;;;1.92;63.35
77587;BME280;66744;49.716;17.158;2023-03-01T08:42:32;100168.13;;;2.07;63.60
77587;BME280;66744;49.716;17.158;2023-03-01T08:45:33;100169.97;;;2.18;61.75
77587;BME280;66744;49.716;17.158;2023-03-01T08:48:35;100178.69;;;2.28;59.35
77587;BME280;66744;49.716;17.158;2023-03-01T08:51:36;100165.38;;;2.38;59.62
77587;BME280;66744;49.716;17.158;2023-03-01T08:54:38;100162.56;;;2.50;58.44
77587;BME280;66744;49.716;17.158;2023-03-01T08:57:39;100166.56;;;2.56;59.98
77587;BME280;66744;49.716;17.158;2023-03-01T09:00:40;100168.28;;;2.64;59.02
77587;BME280;66744;49.716;17.158;2023-03-01T09:03:42;100160.69;;;2.70;58.11
77587;BME280;66744;49.716;17.158;2023-03-01T09:06:43;100162.41;;;2.78;59.25
77587;BME280;66744;49.716;17.158;2023-03-01T09:09:45;100161.78;;;2.85;58.67
77587;BME280;66744;49.716;17.158;2023-03-01T09:12:47;100152.97;;;2.91;58.29
77587;BME280;66744;49.716;17.158;2023-03-01T09:15:48;100141.41;;;2.94;58.61
77587;BME280;66744;49.716;17.158;2023-03-01T09:18:51;100142.66;;;2.97;57.57
77587;BME280;66744;49.716;17.158;2023-03-01T09:21:53;100146.28;;;3.04;57.71
77587;BME280;66744;49.716;17.158;2023-03-01T09:24:54;100136.50;;;3.19;56.17
77587;BME280;66744;49.716;17.158;2023-03-01T09:27:57;100128.28;;;3.15;55.21
77587;BME280;66744;49.716;17.158;2023-03-01T09:30:59;100121.06;;;3.23;56.01
77587;BME280;66744;49.716;17.158;2023-03-01T09:34:01;100124.84;;;3.38;56.16
77587;BME280;66744;49.716;17.158;2023-03-01T09:37:04;100123.03;;;3.45;56.00
77587;BME280;66744;49.716;17.158;2023-03-01T09:40:06;100125.56;;;3.57;57.14
77587;BME280;66744;49.716;17.158;2023-03-01T09:46:42;100125.84;;;3.94;55.23
77587;BME280;66744;49.716;17.158;2023-03-01T09:49:50;100120.03;;;3.96;53.51
77587;BME280;66744;49.716;17.158;2023-03-01T09:53:15;100122.06;;;4.02;55.28
77587;BME280;66744;49.716;17.158;2023-03-01T10:02:44;100115.09;;;4.27;51.61
77587;BME280;66744;49.716;17.158;2023-03-01T10:09:07;100107.97;;;4.45;52.58
77587;BME280;66744;49.716;17.158;2023-03-01T10:12:15;100105.72;;;4.51;50.01
77587;BME280;66744;49.716;17.158;2023-03-01T10:15:59;100102.00;;;4.63;51.74
77587;BME280;66744;49.716;17.158;2023-03-01T10:18:58;100102.06;;;4.70;50.95
77587;BME280;66744;49.716;17.158;2023-03-01T10:22:15;100102.19;;;4.77;52.11
77587;BME280;66744;49.716;17.158;2023-03-01T10:25:24;100099.50;;;4.80;51.95
77587;BME280;66744;49.716;17.158;2023-03-01T10:32:12;100093.06;;;4.95;49.27
77587;BME280;66744;49.716;17.158;2023-03-01T10:35:25;100097.00;;;4.98;50.58
77587;BME280;66744;49.716;17.158;2023-03-01T10:38:30;100080.69;;;5.01;50.64
77587;BME280;66744;49.716;17.158;2023-03-01T10:41:32;100077.63;;;5.07;51.59
77587;BME280;66744;49.716;17.158;2023-03-01T10:47:41;100077.75;;;5.17;49.78
77587;BME280;66744;49.716;17.158;2023-03-01T10:50:44;100068.81;;;5.20;50.28
77587;BME280;66744;49.716;17.158;2023-03-01T10:53:49;100067.03;;;5.31;50.75
77587;BME280;66744;49.716;17.158;2023-03-01T10:56:54;100053.47;;;5.42;51.12
77587;BME280;66744;49.716;17.158;2023-03-01T11:03:14;100040.72;;;5.53;50.90
77587;BME280;66744;49.716;17.158;2023-03-01T11:06:21;100028.38;;;5.63;50.37
77587;BME280;66744;49.716;17.158;2023-03-01T11:09:24;100027.69;;;5.76;49.25
77587;BME280;66744;49.716;17.158;2023-03-01T11:12:28;100020.44;;;5.91;50.59
77587;BME280;66744;49.716;17.158;2023-03-01T11:15:30;100015.66;;;5.81;48.98
77587;BME280;66744;49.716;17.158;2023-03-01T11:18:32;100018.38;;;5.81;48.22
77587;BME280;66744;49.716;17.158;2023-03-01T11:21:35;100015.66;;;5.81;48.19
77587;BME280;66744;49.716;17.158;2023-03-01T11:24:41;100004.84;;;5.88;48.84
77587;BME280;66744;49.716;17.158;2023-03-01T11:27:45;100002.53;;;5.97;49.58
77587;BME280;66744;49.716;17.158;2023-03-01T11:34:12;99985.03;;;5.98;48.45
77587;BME280;66744;49.716;17.158;2023-03-01T11:40:26;99990.59;;;6.19;49.99
77587;BME280;66744;49.716;17.158;2023-03-01T11:43:43;99990.19;;;6.21;49.39
77587;BME280;66744;49.716;17.158;2023-03-01T11:53:19;99972.81;;;6.50;52.00
77587;BME280;66744;49.716;17.158;2023-03-01T12:06:39;99968.13;;;6.50;48.65
77587;BME280;66744;49.716;17.158;2023-03-01T12:10:32;99957.22;;;6.47;48.54
77587;BME280;66744;49.716;17.158;2023-03-01T12:26:36;99933.50;;;6.76;47.10
77587;BME280;66744;49.716;17.158;2023-03-01T12:33:22;99923.38;;;6.87;49.08
77587;BME280;66744;49.716;17.158;2023-03-01T12:36:30;99913.22;;;6.87;48.93
77587;BME280;66744;49.716;17.158;2023-03-01T12:49:49;99904.66;;;6.99;46.30
77587;BME280;66744;49.716;17.158;2023-03-01T12:52:52;99899.97;;;7.07;47.45
77587;BME280;66744;49.716;17.158;2023-03-01T12:56:17;99896.47;;;7.17;46.63
77587;BME280;66744;49.716;17.158;2023-03-01T12:59:39;99899.59;;;7.26;46.59
77587;BME280;66744;49.716;17.158;2023-03-01T13:02:52;99907.78;;;7.30;44.96
77587;BME280;66744;49.716;17.158;2023-03-01T13:06:12;99910.50;;;7.22;45.82
77587;BME280;66744;49.716;17.158;2023-03-01T13:09:35;99906.22;;;7.18;46.49
77587;BME280;66744;49.716;17.158;2023-03-01T13:12:51;99906.59;;;7.16;44.64
77587;BME280;66744;49.716;17.158;2023-03-01T13:15:53;99908.56;;;7.16;46.57
77587;BME280;66744;49.716;17.158;2023-03-01T13:19:15;99902.31;;;7.19;46.50
77587;BME280;66744;49.716;17.158;2023-03-01T13:22:29;99907.38;;;7.13;45.28
77587;BME280;66744;49.716;17.158;2023-03-01T13:25:32;99905.44;;;7.10;46.07
77587;BME280;66744;49.716;17.158;2023-03-01T13:34:41;99912.06;;;7.02;46.71
77587;BME280;66744;49.716;17.158;2023-03-01T13:37:45;99903.09;;;6.91;45.78
77587;BME280;66744;49.716;17.158;2023-03-01T13:43:51;99906.59;;;6.88;47.07
77587;BME280;66744;49.716;17.158;2023-03-01T13:50:01;99921.41;;;6.73;47.00
77587;BME280;66744;49.716;17.158;2023-03-01T13:53:06;99905.41;;;6.64;47.08
77587;BME280;66744;49.716;17.158;2023-03-01T13:56:12;99909.69;;;6.62;46.70
77587;BME280;66744;49.716;17.158;2023-03-01T13:59:17;99923.31;;;6.58;45.31
77587;BME280;66744;49.716;17.158;2023-03-01T14:02:18;99915.50;;;6.50;47.34
77587;BME280;66744;49.716;17.158;2023-03-01T14:05:20;99915.47;;;6.46;48.47
77587;BME280;66744;49.716;17.158;2023-03-01T14:08:23;99903.00;;;6.45;47.72
77587;BME280;66744;49.716;17.158;2023-03-01T14:18:26;99897.91;;;6.37;49.66
77587;BME280;66744;49.716;17.158;2023-03-01T14:21:32;99894.00;;;6.34;49.29
77587;BME280;66744;49.716;17.158;2023-03-01T14:24:35;99893.59;;;6.29;48.82
77587;BME280;66744;49.716;17.158;2023-03-01T14:27:39;99896.69;;;6.27;50.20
77587;BME280;66744;49.716;17.158;2023-03-01T14:30:50;99895.50;;;6.21;50.12
77587;BME280;66744;49.716;17.158;2023-03-01T14:33:55;99886.16;;;6.19;49.57
77587;BME280;66744;49.716;17.158;2023-03-01T14:37:09;99897.03;;;6.15;49.08
77587;BME280;66744;49.716;17.158;2023-03-01T14:40:22;99898.56;;;6.09;51.86
77587;BME280;66744;49.716;17.158;2023-03-01T14:43:24;99893.91;;;6.09;51.75
77587;BME280;66744;49.716;17.158;2023-03-01T14:46:37;99907.94;;;6.15;53.08
77587;BME280;66744;49.716;17.158;2023-03-01T14:49:39;99910.28;;;6.13;49.82
77587;BME280;66744;49.716;17.158;2023-03-01T14:52:42;99902.47;;;6.08;49.69
77587;BME280;66744;49.716;17.158;2023-03-01T14:55:48;99907.13;;;6.04;50.56
77587;BME280;66744;49.716;17.158;2023-03-01T14:58:53;99909.44;;;5.98;50.31
77587;BME280;66744;49.716;17.158;2023-03-01T15:01:56;99909.03;;;5.93;48.64
77587;BME280;66744;49.716;17.158;2023-03-01T15:05:01;99896.09;;;5.83;50.53
77587;BME280;66744;49.716;17.158;2023-03-01T15:08:04;99908.50;;;5.77;50.09
77587;BME280;66744;49.716;17.158;2023-03-01T15:11:28;99908.88;;;5.72;50.60
77587;BME280;66744;49.716;17.158;2023-03-01T15:14:41;99899.50;;;5.66;50.70
77587;BME280;66744;49.716;17.158;2023-03-01T15:17:43;99900.66;;;5.61;50.06
77587;BME280;66744;49.716;17.158;2023-03-01T15:20:45;99902.16;;;5.55;51.97
77587;BME280;66744;49.716;17.158;2023-03-01T15:23:54;99897.78;;;5.43;51.44
77587;BME280;66744;49.716;17.158;2023-03-01T15:27:00;99900.50;;;5.40;52.67
77587;BME280;66744;49.716;17.158;2023-03-01T15:30:23;99893.44;;;5.35;52.17
77587;BME280;66744;49.716;17.158;2023-03-01T15:39:53;99897.22;;;5.20;51.69
77587;BME280;66744;49.716;17.158;2023-03-01T15:42:55;99895.59;;;5.09;53.32
77587;BME280;66744;49.716;17.158;2023-03-01T15:45:57;99895.16;;;5.03;54.08
77587;BME280;66744;49.716;17.158;2023-03-01T15:49:02;99902.84;;;4.94;53.83
77587;BME280;66744;49.716;17.158;2023-03-01T15:52:08;99898.53;;;4.89;52.39
77587;BME280;66744;49.716;17.158;2023-03-01T15:55:22;99901.19;;;4.82;53.07
77587;BME280;66744;49.716;17.158;2023-03-01T15:58:24;99900.31;;;4.71;54.03
77587;BME280;66744;49.716;17.158;2023-03-01T16:01:26;99897.06;;;4.59;54.33
77587;BME280;66744;49.716;17.158;2023-03-01T16:04:28;99900.44;;;4.48;54.80
77587;BME280;66744;49.716;17.158;2023-03-01T16:07:29;99899.97;;;4.39;55.61
77587;BME280;66744;49.716;17.158;2023-03-01T16:10:33;99907.63;;;4.27;55.23
77587;BME280;66744;49.716;17.158;2023-03-01T16:13:34;99904.00;;;4.19;55.74
77587;BME280;66744;49.716;17.158;2023-03-01T16:16:35;99907.81;;;4.11;55.11
77587;BME280;66744;49.716;17.158;2023-03-01T16:19:37;99912.38;;;4.04;56.08
77587;BME280;66744;49.716;17.158;2023-03-01T16:22:39;99909.91;;;3.91;56.42
77587;BME280;66744;49.716;17.158;2023-03-01T16:25:41;99909.69;;;3.77;55.53
77587;BME280;66744;49.716;17.158;2023-03-01T16:28:43;99920.88;;;3.72;56.39
77587;BME280;66744;49.716;17.158;2023-03-01T16:31:45;99915.72;;;3.64;56.47
77587;BME280;66744;49.716;17.158;2023-03-01T16:34:46;99919.16;;;3.61;56.15
77587;BME280;66744;49.716;17.158;2023-03-01T16:37:50;99915.59;;;3.57;57.06
77587;BME280;66744;49.716;17.158;2023-03-01T16:40:53;99921.75;;;3.50;57.33
77587;BME280;66744;49.716;17.158;2023-03-01T16:43:54;99917.28;;;3.38;56.47
77587;BME280;66744;49.716;17.158;2023-03-01T16:46:56;99910.66;;;3.36;57.71
77587;BME280;66744;49.716;17.158;2023-03-01T16:49:57;99914.41;;;3.28;57.65
77587;BME280;66744;49.716;17.158;2023-03-01T16:52:58;99918.91;;;3.17;57.67
77587;BME280;66744;49.716;17.158;2023-03-01T16:55:59;99925.78;;;3.11;58.23
77587;BME280;66744;49.716;17.158;2023-03-01T16:59:01;99928.75;;;3.02;58.88
77587;BME280;66744;49.716;17.158;2023-03-01T17:02:03;99937.47;;;2.92;58.16
77587;BME280;66744;49.716;17.158;2023-03-01T17:05:05;99932.28;;;2.84;59.51
77587;BME280;66744;49.716;17.158;2023-03-01T17:08:09;99926.31;;;2.74;60.37
77587;BME280;66744;49.716;17.158;2023-03-01T17:11:16;99930.53;;;2.72;59.09
77587;BME280;66744;49.716;17.158;2023-03-01T17:14:18;99925.59;;;2.77;58.42
77587;BME280;66744;49.716;17.158;2023-03-01T17:17:21;99928.38;;;2.81;58.52
77587;BME280;66744;49.716;17.158;2023-03-01T17:20:22;99921.84;;;2.86;57.60
77587;BME280;66744;49.716;17.158;2023-03-01T17:23:24;99922.69;;;2.90;57.68
77587;BME280;66744;49.716;17.158;2023-03-01T17:26:25;99918.47;;;2.92;57.75
77587;BME280;66744;49.716;17.158;2023-03-01T17:29:27;99911.53;;;2.95;57.58
77587;BME280;66744;49.716;17.158;2023-03-01T17:32:28;99914.63;;;2.93;58.31
77587;BME280;66744;49.716;17.158;2023-03-01T17:35:29;99916.31;;;2.78;59.23
77587;BME280;66744;49.716;17.158;2023-03-01T17:38:30;99923.81;;;2.66;60.75